createdAt,value
2018-11-04T00:01:56.978Z,11.60
2018-11-04T00:04:30.225Z,11.60
2018-11-04T00:07:00.723Z,11.60
2018-11-04T00:09:31.147Z,11.70
2018-11-04T00:12:01.367Z,11.70
2018-11-04T00:14:32.023Z,11.70
2018-11-04T00:17:02.961Z,11.80
2018-11-04T00:19:33.167Z,11.80
2018-11-04T00:22:03.533Z,11.80
2018-11-04T00:24:33.860Z,11.80
2018-11-04T00:27:04.214Z,11.80
2018-11-04T00:29:35.139Z,11.80
2018-11-04T00:32:05.936Z,11.70
2018-11-04T00:34:36.454Z,11.70
2018-11-04T00:37:07.600Z,11.60
2018-11-04T00:39:38.005Z,11.60
2018-11-04T00:42:08.250Z,11.60
2018-11-04T00:44:39.121Z,11.60
2018-11-04T00:47:09.427Z,11.60
2018-11-04T00:49:40.406Z,11.60
2018-11-04T00:52:10.853Z,11.60
2018-11-04T00:54:41.574Z,11.60
2018-11-04T00:57:11.966Z,11.60
2018-11-04T00:59:42.194Z,11.60
2018-11-04T01:02:12.632Z,11.40
2018-11-04T01:04:43.020Z,11.30
2018-11-04T01:07:13.488Z,11.30
2018-11-04T01:09:43.865Z,11.20
2018-11-04T01:12:14.202Z,11.20
2018-11-04T01:14:44.783Z,11.10
2018-11-04T01:17:15.288Z,11.10
2018-11-04T01:19:45.671Z,11.10
2018-11-04T01:22:16.136Z,11.00
2018-11-04T01:24:46.502Z,10.90
2018-11-04T01:27:16.763Z,10.90
2018-11-04T01:29:47.271Z,10.90
2018-11-04T01:32:17.530Z,10.90
2018-11-04T01:34:47.830Z,10.80
2018-11-04T01:37:18.221Z,10.80
2018-11-04T01:39:48.827Z,10.70
2018-11-04T01:42:19.152Z,10.80
2018-11-04T01:44:49.412Z,10.60
2018-11-04T01:47:20.046Z,10.60
2018-11-04T01:49:50.238Z,10.50
2018-11-04T01:52:21.018Z,10.60
2018-11-04T01:54:51.700Z,10.70
2018-11-04T01:57:22.115Z,10.70
2018-11-04T01:59:52.566Z,10.70
2018-11-04T02:02:23.171Z,10.70
2018-11-04T02:04:53.733Z,10.70
2018-11-04T02:07:24.093Z,10.70
2018-11-04T02:09:54.544Z,10.60
2018-11-04T02:12:25.049Z,10.60
2018-11-04T02:14:55.384Z,10.60
2018-11-04T02:17:25.832Z,10.60
2018-11-04T02:19:56.272Z,10.60
2018-11-04T02:22:26.540Z,10.50
2018-11-04T02:24:56.841Z,10.50
2018-11-04T02:27:27.306Z,10.40
2018-11-04T02:29:57.666Z,10.40
2018-11-04T02:32:27.955Z,10.30
2018-11-04T02:34:58.599Z,10.30
2018-11-04T02:37:29.168Z,10.40
2018-11-04T02:39:59.490Z,10.40
2018-11-04T02:42:30.025Z,10.50
2018-11-04T02:45:03.061Z,10.40
2018-11-04T02:47:33.372Z,10.30
2018-11-04T02:50:03.708Z,10.30
2018-11-04T02:52:34.319Z,10.30
2018-11-04T02:55:04.664Z,10.20
2018-11-04T02:57:35.205Z,10.10
2018-11-04T03:00:06.136Z,10.00
2018-11-04T03:02:36.741Z,10.00
2018-11-04T03:05:08.071Z,10.00
2018-11-04T03:07:38.953Z,10.00
2018-11-04T03:10:10.253Z,10.00
2018-11-04T03:12:40.746Z,10.00
2018-11-04T03:15:11.287Z,10.10
2018-11-04T03:17:41.781Z,10.00
2018-11-04T03:20:11.960Z,10.00
2018-11-04T03:22:42.591Z,9.90
2018-11-04T03:25:13.211Z,9.90
2018-11-04T03:27:43.664Z,9.90
2018-11-04T03:30:14.129Z,9.80
2018-11-04T03:32:44.546Z,9.70
2018-11-04T03:35:14.732Z,9.80
2018-11-04T03:37:45.286Z,9.70
2018-11-04T03:40:15.609Z,9.60
2018-11-04T03:42:46.317Z,9.50
2018-11-04T03:45:16.813Z,9.50
2018-11-04T03:47:47.147Z,9.50
2018-11-04T03:50:17.355Z,9.50
2018-11-04T03:52:47.659Z,9.40
2018-11-04T03:55:17.807Z,9.40
2018-11-04T03:57:48.279Z,9.40
2018-11-04T04:00:18.503Z,9.30
2018-11-04T04:02:48.692Z,9.30
2018-11-04T04:05:18.956Z,9.30
2018-11-04T04:07:49.184Z,9.30
2018-11-04T04:10:19.465Z,9.40
2018-11-04T04:12:50.172Z,9.30
2018-11-04T04:15:20.587Z,9.30
2018-11-04T04:17:51.029Z,9.20
2018-11-04T04:20:21.305Z,9.20
2018-11-04T04:22:51.593Z,9.30
2018-11-04T04:25:21.925Z,9.30
2018-11-04T04:27:53.069Z,9.30
2018-11-04T04:30:23.242Z,9.30
2018-11-04T04:32:53.828Z,9.30
2018-11-04T04:35:24.134Z,9.20
2018-11-04T04:37:54.538Z,9.20
2018-11-04T04:40:24.886Z,9.10
2018-11-04T04:42:55.092Z,9.10
2018-11-04T04:45:25.239Z,9.00
2018-11-04T04:47:55.607Z,9.10
2018-11-04T04:50:25.904Z,9.10
2018-11-04T04:52:56.126Z,9.00
2018-11-04T04:55:26.431Z,9.00
2018-11-04T04:57:56.886Z,9.00
2018-11-04T05:00:27.249Z,9.00
2018-11-04T05:02:57.738Z,9.00
2018-11-04T05:05:28.296Z,9.10
2018-11-04T05:07:58.936Z,9.10
2018-11-04T05:10:29.292Z,9.10
2018-11-04T05:12:59.834Z,9.20
2018-11-04T05:15:31.508Z,9.20
2018-11-04T05:18:01.798Z,9.30
2018-11-04T05:20:32.069Z,9.30
2018-11-04T05:23:02.384Z,9.40
2018-11-04T05:25:32.710Z,9.50
2018-11-04T05:28:03.069Z,9.50
2018-11-04T05:30:33.902Z,9.60
2018-11-04T05:33:04.480Z,9.60
2018-11-04T05:35:34.846Z,9.70
2018-11-04T05:38:05.273Z,9.80
2018-11-04T05:40:35.695Z,9.90
2018-11-04T05:43:06.488Z,10.00
2018-11-04T05:45:36.713Z,10.10
2018-11-04T05:48:06.885Z,10.20
2018-11-04T05:50:37.101Z,10.30
2018-11-04T05:53:07.569Z,10.50
2018-11-04T05:55:38.011Z,10.60
2018-11-04T05:58:08.287Z,10.80
2018-11-04T06:00:38.598Z,11.00
2018-11-04T06:03:09.058Z,11.20
2018-11-04T06:05:39.694Z,11.30
2018-11-04T06:08:10.091Z,11.50
2018-11-04T06:10:40.585Z,11.70
2018-11-04T06:13:11.018Z,11.90
2018-11-04T06:15:41.515Z,12.10
2018-11-04T06:18:12.076Z,12.40
2018-11-04T06:20:42.592Z,12.60
2018-11-04T06:23:13.075Z,13.00
2018-11-04T06:25:43.718Z,13.20
2018-11-04T06:28:14.117Z,13.40
2018-11-04T06:30:44.577Z,13.60
2018-11-04T06:33:15.174Z,13.60
2018-11-04T06:35:45.934Z,13.50
2018-11-04T06:38:16.523Z,13.40
2018-11-04T06:40:47.109Z,13.30
2018-11-04T06:43:17.577Z,13.20
2018-11-04T06:45:48.538Z,13.30
2018-11-04T06:48:19.041Z,13.30
2018-11-04T06:50:49.672Z,13.40
2018-11-04T06:53:20.445Z,13.40
2018-11-04T06:55:51.070Z,13.50
2018-11-04T06:58:21.634Z,13.60
2018-11-04T07:00:52.163Z,13.70
2018-11-04T07:03:22.771Z,13.70
2018-11-04T07:05:53.270Z,13.80
2018-11-04T07:08:23.953Z,14.10
2018-11-04T07:10:54.403Z,14.40
2018-11-04T07:13:25.125Z,14.40
2018-11-04T07:15:55.849Z,14.50
2018-11-04T07:18:26.575Z,14.70
2018-11-04T07:20:57.213Z,14.80
2018-11-04T07:23:27.886Z,15.00
2018-11-04T07:25:58.795Z,15.00
2018-11-04T07:28:29.449Z,15.20
2018-11-04T07:31:00.099Z,15.30
2018-11-04T07:33:30.845Z,15.50
2018-11-04T07:36:01.615Z,15.60
2018-11-04T07:38:32.374Z,15.70
2018-11-04T07:41:02.915Z,15.90
2018-11-04T07:43:33.447Z,15.90
2018-11-04T07:46:04.061Z,16.00
2018-11-04T07:48:34.614Z,16.10
2018-11-04T07:51:05.421Z,16.20
2018-11-04T07:53:36.132Z,16.40
2018-11-04T07:56:06.786Z,16.70
2018-11-04T07:58:37.823Z,16.90
2018-11-04T08:01:13.575Z,17.20
2018-11-04T08:03:44.593Z,17.80
2018-11-04T08:06:14.972Z,18.40
2018-11-04T08:08:45.312Z,18.70
2018-11-04T08:11:16.029Z,18.70
2018-11-04T08:13:47.736Z,18.40
2018-11-04T08:16:18.486Z,18.40
2018-11-04T08:18:50.375Z,18.40
2018-11-04T08:21:21.960Z,18.50
2018-11-04T08:23:54.022Z,18.50
2018-11-04T08:26:25.201Z,18.50
2018-11-04T08:28:55.531Z,18.50
2018-11-04T08:31:25.835Z,18.50
2018-11-04T08:33:57.783Z,18.50
2018-11-04T08:36:31.271Z,18.60
2018-11-04T08:39:03.485Z,18.60
2018-11-04T08:41:33.877Z,18.40
2018-11-04T08:44:04.608Z,18.30
2018-11-04T08:46:35.142Z,18.40
2018-11-04T08:49:05.924Z,18.40
2018-11-04T08:51:48.341Z,18.60
2018-11-04T08:54:20.513Z,18.60
2018-11-04T08:56:51.133Z,18.60
2018-11-04T08:59:21.827Z,18.60
2018-11-04T09:01:52.036Z,18.70
2018-11-04T09:04:22.678Z,18.70
2018-11-04T09:06:53.043Z,18.80
2018-11-04T09:09:23.929Z,19.00
2018-11-04T09:11:54.626Z,19.20
2018-11-04T09:14:25.245Z,19.20
2018-11-04T09:16:55.712Z,19.20
2018-11-04T09:19:26.025Z,19.30
2018-11-04T09:21:56.606Z,19.40
2018-11-04T09:24:27.426Z,19.40
2018-11-04T09:26:58.004Z,19.40
2018-11-04T09:29:28.809Z,19.50
2018-11-04T09:31:59.219Z,19.60
2018-11-04T09:34:29.647Z,19.80
2018-11-04T09:36:59.935Z,19.80
2018-11-04T09:39:32.092Z,19.90
2018-11-04T09:42:03.048Z,20.00
2018-11-04T09:44:33.417Z,20.10
2018-11-04T09:47:03.926Z,20.10
2018-11-04T09:49:34.264Z,20.10
2018-11-04T09:52:04.986Z,20.10
2018-11-04T09:54:35.481Z,20.40
2018-11-04T09:57:06.741Z,20.30
2018-11-04T09:59:37.062Z,20.60
2018-11-04T10:02:07.491Z,20.90
2018-11-04T10:04:37.988Z,21.00
2018-11-04T10:07:08.401Z,21.10
2018-11-04T10:09:38.894Z,21.30
2018-11-04T10:12:09.210Z,21.40
2018-11-04T10:14:39.605Z,21.30
2018-11-04T10:17:10.187Z,21.40
2018-11-04T10:19:41.230Z,21.60
2018-11-04T10:22:11.696Z,21.60
2018-11-04T10:24:41.996Z,21.70
2018-11-04T10:27:12.654Z,21.80
2018-11-04T10:29:42.944Z,21.80
2018-11-04T10:32:13.409Z,21.90
2018-11-04T10:34:43.675Z,21.90
2018-11-04T10:37:14.381Z,21.80
2018-11-04T10:39:45.064Z,21.60
2018-11-04T10:42:15.605Z,21.70
2018-11-04T10:44:46.563Z,21.90
2018-11-04T10:47:17.114Z,22.40
2018-11-04T10:49:47.742Z,22.40
2018-11-04T10:52:18.296Z,22.70
2018-11-04T10:54:48.834Z,22.80
2018-11-04T10:57:19.643Z,22.80
2018-11-04T10:59:50.387Z,22.70
2018-11-04T11:02:20.929Z,22.80
2018-11-04T11:04:53.310Z,22.60
2018-11-04T11:07:23.939Z,22.40
2018-11-04T11:09:54.666Z,22.30
2018-11-04T11:12:25.301Z,22.20
2018-11-04T11:14:55.824Z,22.50
2018-11-04T11:17:27.183Z,22.60
2018-11-04T11:19:57.859Z,22.60
2018-11-04T11:22:28.851Z,22.80
2018-11-04T11:24:59.609Z,22.70
2018-11-04T11:27:30.641Z,22.60
2018-11-04T11:30:01.223Z,22.40
2018-11-04T11:32:32.427Z,22.40
2018-11-04T11:35:03.845Z,22.30
2018-11-04T11:37:35.084Z,22.10
2018-11-04T11:40:07.198Z,22.10
2018-11-04T11:42:38.141Z,22.00
2018-11-04T11:45:09.903Z,22.00
2018-11-04T11:47:40.986Z,22.10
2018-11-04T11:50:11.476Z,22.20
2018-11-04T11:52:42.118Z,22.10
2018-11-04T11:55:12.632Z,22.10
2018-11-04T11:57:43.160Z,22.10
2018-11-04T12:00:13.750Z,22.10
2018-11-04T12:02:44.186Z,22.00
2018-11-04T12:05:17.247Z,22.00
2018-11-04T12:07:48.685Z,22.00
2018-11-04T12:10:19.274Z,22.00
2018-11-04T12:12:49.915Z,21.90
2018-11-04T12:15:20.665Z,21.90
2018-11-04T12:17:51.312Z,21.80
2018-11-04T12:20:21.792Z,21.90
2018-11-04T12:22:52.456Z,21.80
2018-11-04T12:25:23.160Z,21.80
2018-11-04T12:27:53.879Z,21.80
2018-11-04T12:30:26.028Z,21.90
2018-11-04T12:32:56.477Z,21.80
2018-11-04T12:35:27.640Z,21.80
2018-11-04T12:37:58.577Z,21.80
2018-11-04T12:40:29.262Z,21.80
2018-11-04T12:42:59.998Z,21.80
2018-11-04T12:45:30.706Z,21.80
2018-11-04T12:48:01.289Z,21.80
2018-11-04T12:50:32.151Z,21.80
2018-11-04T12:53:02.894Z,21.70
2018-11-04T12:55:33.730Z,21.70
2018-11-04T12:58:05.015Z,21.70
2018-11-04T13:00:35.717Z,21.70
2018-11-04T13:03:06.171Z,21.70
2018-11-04T13:05:36.829Z,21.60
2018-11-04T13:08:07.449Z,21.70
2018-11-04T13:10:37.980Z,21.70
2018-11-04T13:13:11.805Z,21.80
2018-11-04T13:15:42.704Z,21.80
2018-11-04T13:18:13.191Z,21.80
2018-11-04T13:20:43.842Z,21.80
2018-11-04T13:23:14.502Z,21.80
2018-11-04T13:25:45.449Z,21.80
2018-11-04T13:28:16.037Z,21.80
2018-11-04T13:30:46.910Z,21.90
2018-11-04T13:33:17.474Z,22.00
2018-11-04T13:35:48.083Z,22.00
2018-11-04T13:38:18.857Z,22.10
2018-11-04T13:40:50.145Z,22.10
2018-11-04T13:43:25.450Z,22.10
2018-11-04T13:45:57.085Z,22.00
2018-11-04T13:48:27.771Z,21.90
2018-11-04T13:50:58.381Z,21.80
2018-11-04T13:53:28.669Z,21.70
2018-11-04T13:55:59.151Z,21.60
2018-11-04T13:58:29.827Z,21.60
2018-11-04T14:01:00.434Z,21.60
2018-11-04T14:03:31.013Z,21.60
2018-11-04T14:06:02.869Z,21.50
2018-11-04T14:08:33.914Z,21.40
2018-11-04T14:11:04.740Z,21.20
2018-11-04T14:13:35.519Z,21.00
2018-11-04T14:16:05.887Z,20.80
2018-11-04T14:18:36.792Z,20.60
2018-11-04T14:21:07.650Z,20.50
2018-11-04T14:23:38.433Z,20.30
2018-11-04T14:26:09.634Z,20.10
2018-11-04T14:28:40.609Z,19.90
2018-11-04T14:31:11.396Z,19.80
2018-11-04T14:33:42.010Z,19.50
2018-11-04T14:36:12.361Z,19.40
2018-11-04T14:38:42.693Z,19.30
2018-11-04T14:41:13.270Z,19.10
2018-11-04T14:43:43.598Z,19.00
2018-11-04T14:46:18.882Z,18.90
2018-11-04T14:48:49.746Z,18.70
2018-11-04T14:51:21.641Z,18.50
2018-11-04T14:53:52.613Z,18.30
2018-11-04T14:56:32.499Z,18.10
2018-11-04T14:59:04.279Z,18.00
2018-11-04T15:01:38.992Z,18.00
2018-11-04T15:04:10.222Z,17.90
2018-11-04T15:06:40.831Z,17.90
2018-11-04T15:09:11.506Z,17.80
2018-11-04T15:11:42.026Z,17.80
2018-11-04T15:14:12.509Z,17.60
2018-11-04T15:16:42.771Z,17.50
2018-11-04T15:19:13.357Z,17.30
2018-11-04T15:21:43.646Z,17.20
2018-11-04T15:24:14.073Z,17.00
2018-11-04T15:26:44.520Z,17.00
2018-11-04T15:29:14.910Z,16.90
2018-11-04T15:31:45.594Z,16.80
2018-11-04T15:34:16.108Z,16.70
2018-11-04T15:36:46.744Z,16.60
2018-11-04T15:39:17.588Z,16.50
2018-11-04T15:41:48.490Z,16.40
2018-11-04T15:44:20.179Z,16.30
2018-11-04T15:46:51.162Z,16.20
2018-11-04T15:49:21.553Z,16.10
2018-11-04T15:51:51.914Z,16.00
2018-11-04T15:54:22.244Z,16.00
2018-11-04T15:56:52.567Z,15.90
2018-11-04T15:59:23.186Z,15.90
2018-11-04T16:01:53.899Z,15.80
2018-11-04T16:04:24.487Z,15.80
2018-11-04T16:06:55.482Z,15.70
2018-11-04T16:09:25.905Z,15.70
2018-11-04T16:11:56.207Z,15.70
2018-11-04T16:14:27.353Z,15.60
2018-11-04T16:16:57.740Z,15.40
2018-11-04T16:19:28.465Z,15.30
2018-11-04T16:21:58.990Z,15.20
2018-11-04T16:24:29.541Z,15.20
2018-11-04T16:27:00.292Z,15.10
2018-11-04T16:29:30.809Z,15.00
2018-11-04T16:32:01.544Z,14.90
2018-11-04T16:34:32.875Z,14.80
2018-11-04T16:37:03.281Z,14.80
2018-11-04T16:39:34.052Z,14.80
2018-11-04T16:42:04.347Z,14.80
2018-11-04T16:44:34.903Z,14.80
2018-11-04T16:47:05.418Z,14.80
2018-11-04T16:49:35.779Z,14.80
2018-11-04T16:52:06.352Z,14.90
2018-11-04T16:54:37.993Z,14.80
2018-11-04T16:57:10.505Z,14.70
2018-11-04T16:59:41.049Z,14.70
2018-11-04T17:02:11.443Z,14.70
2018-11-04T17:04:48.236Z,14.70
2018-11-04T17:07:18.802Z,14.70
2018-11-04T17:09:49.175Z,14.50
2018-11-04T17:12:19.796Z,14.50
2018-11-04T17:14:50.267Z,14.40
2018-11-04T17:17:21.566Z,14.40
2018-11-04T17:19:53.526Z,14.40
2018-11-04T17:22:24.158Z,14.50
2018-11-04T17:24:54.719Z,14.50
2018-11-04T17:27:25.084Z,14.60
2018-11-04T17:29:55.452Z,14.20
2018-11-04T17:32:26.019Z,14.60
2018-11-04T17:34:56.577Z,14.60
2018-11-04T17:37:27.313Z,14.50
2018-11-04T17:39:58.001Z,14.50
2018-11-04T17:42:28.505Z,14.50
2018-11-04T17:45:01.624Z,14.40
2018-11-04T17:47:36.321Z,14.30
2018-11-04T17:50:09.527Z,14.30
2018-11-04T17:52:41.968Z,14.30
2018-11-04T17:55:13.655Z,14.40
2018-11-04T17:57:45.926Z,14.40
2018-11-04T18:00:24.756Z,14.50
2018-11-04T18:02:57.690Z,14.50
2018-11-04T18:05:28.304Z,14.40
2018-11-04T18:07:58.645Z,14.40
2018-11-04T18:10:28.992Z,14.40
2018-11-04T18:12:59.215Z,14.30
2018-11-04T18:15:29.716Z,14.30
2018-11-04T18:17:59.987Z,14.30
2018-11-04T18:20:31.263Z,14.30
2018-11-04T18:23:01.848Z,14.20
2018-11-04T18:25:32.171Z,14.30
2018-11-04T18:28:02.424Z,14.30
2018-11-04T18:30:32.724Z,14.20
2018-11-04T18:33:03.089Z,14.10
2018-11-04T18:35:33.338Z,14.00
2018-11-04T18:38:03.684Z,13.90
2018-11-04T18:40:34.175Z,13.90
2018-11-04T18:43:04.630Z,13.80
2018-11-04T18:45:35.126Z,13.80
2018-11-04T18:48:05.614Z,13.80
2018-11-04T18:50:36.081Z,13.70
2018-11-04T18:53:06.820Z,13.70
2018-11-04T18:55:37.729Z,13.60
2018-11-04T18:58:08.096Z,13.60
2018-11-04T19:00:39.423Z,13.60
2018-11-04T19:03:11.768Z,13.50
2018-11-04T19:05:43.989Z,13.50
2018-11-04T19:08:15.041Z,13.40
2018-11-04T19:10:45.793Z,13.40
2018-11-04T19:13:16.805Z,13.40
2018-11-04T19:15:47.306Z,13.50
2018-11-04T19:18:17.703Z,13.50
2018-11-04T19:20:48.315Z,13.50
2018-11-04T19:23:18.806Z,13.40
2018-11-04T19:25:49.256Z,13.20
2018-11-04T19:28:20.617Z,13.10
2018-11-04T19:30:52.694Z,13.10
2018-11-04T19:33:23.202Z,13.10
2018-11-04T19:35:53.490Z,13.10
2018-11-04T19:38:25.997Z,13.10
2018-11-04T19:41:03.221Z,13.10
2018-11-04T19:43:36.396Z,13.10
2018-11-04T19:46:06.934Z,13.20
2018-11-04T19:48:37.173Z,13.20
2018-11-04T19:51:07.726Z,13.30
2018-11-04T19:53:38.286Z,13.30
2018-11-04T19:56:09.396Z,13.30
2018-11-04T19:58:39.839Z,13.30
2018-11-04T20:01:10.858Z,13.30
2018-11-04T20:03:41.466Z,13.20
2018-11-04T20:06:11.981Z,13.20
2018-11-04T20:08:47.448Z,13.10
2018-11-04T20:11:18.122Z,13.00
2018-11-04T20:13:53.824Z,13.00
2018-11-04T20:16:24.183Z,12.90
2018-11-04T20:18:59.527Z,12.70
2018-11-04T20:21:29.995Z,12.50
2018-11-04T20:24:04.469Z,12.40
2018-11-04T20:26:34.773Z,12.30
2018-11-04T20:29:05.048Z,12.30
2018-11-04T20:31:40.203Z,12.30
2018-11-04T20:34:10.621Z,12.40
2018-11-04T20:36:40.944Z,12.40
2018-11-04T20:39:16.854Z,12.30
2018-11-04T20:41:47.909Z,12.30
2018-11-04T20:44:18.251Z,12.30
2018-11-04T20:46:48.456Z,12.30
2018-11-04T20:49:23.628Z,12.20
2018-11-04T20:51:54.030Z,12.10
2018-11-04T20:54:24.449Z,12.10
2018-11-04T20:56:59.740Z,12.10
2018-11-04T20:59:30.121Z,12.10
2018-11-04T21:02:00.591Z,12.00
2018-11-04T21:04:31.448Z,12.00
2018-11-04T21:07:01.855Z,11.90
2018-11-04T21:09:33.013Z,11.90
2018-11-04T21:12:03.688Z,11.80
2018-11-04T21:14:34.236Z,11.80
2018-11-04T21:17:04.700Z,11.90
2018-11-04T21:19:35.008Z,11.90
2018-11-04T21:22:06.141Z,11.80
2018-11-04T21:24:36.621Z,11.60
2018-11-04T21:27:07.856Z,11.50
2018-11-04T21:29:38.831Z,11.40
2018-11-04T21:32:10.025Z,11.40
2018-11-04T21:34:40.565Z,11.40
2018-11-04T21:37:11.177Z,11.40
2018-11-04T21:39:41.629Z,11.30
2018-11-04T21:42:12.324Z,11.40
2018-11-04T21:44:42.810Z,11.40
2018-11-04T21:47:13.341Z,11.40
2018-11-04T21:49:43.709Z,11.40
2018-11-04T21:52:14.256Z,11.30
2018-11-04T21:54:44.747Z,11.20
2018-11-04T21:57:15.318Z,11.10
2018-11-04T21:59:45.817Z,11.00
2018-11-04T22:02:16.379Z,11.00
2018-11-04T22:04:47.029Z,11.00
2018-11-04T22:07:17.725Z,11.00
2018-11-04T22:09:48.337Z,11.10
2018-11-04T22:12:18.798Z,11.00
2018-11-04T22:14:49.125Z,10.90
2018-11-04T22:17:19.648Z,10.80
2018-11-04T22:19:50.065Z,10.70
2018-11-04T22:22:20.560Z,10.80
2018-11-04T22:24:51.211Z,10.70
2018-11-04T22:27:21.599Z,10.80
2018-11-04T22:29:52.017Z,10.80
2018-11-04T22:32:22.569Z,10.70
2018-11-04T22:34:52.989Z,10.70
2018-11-04T22:37:23.462Z,10.70
2018-11-04T22:39:54.341Z,10.60
2018-11-04T22:42:24.862Z,10.60
2018-11-04T22:44:55.352Z,10.60
2018-11-04T22:47:25.876Z,10.60
2018-11-04T22:49:56.217Z,10.60
2018-11-04T22:52:26.994Z,10.60
2018-11-04T22:54:57.345Z,10.60
2018-11-04T22:57:27.945Z,10.70
2018-11-04T22:59:58.274Z,10.60
2018-11-04T23:02:28.698Z,10.60
2018-11-04T23:05:04.002Z,10.70
2018-11-04T23:07:34.488Z,10.70
2018-11-04T23:10:05.722Z,10.70
2018-11-04T23:12:36.090Z,10.70
2018-11-04T23:15:07.032Z,10.70
2018-11-04T23:17:37.691Z,10.60
2018-11-04T23:20:09.116Z,10.60
2018-11-04T23:22:39.454Z,10.70
2018-11-04T23:25:12.156Z,10.60
2018-11-04T23:27:43.586Z,10.50
2018-11-04T23:30:17.410Z,10.40
2018-11-04T23:32:48.352Z,10.30
2018-11-04T23:35:18.799Z,10.30
2018-11-04T23:37:49.434Z,10.30
2018-11-04T23:40:19.885Z,10.30
2018-11-04T23:42:50.261Z,10.30
2018-11-04T23:45:20.473Z,10.30
2018-11-04T23:47:51.052Z,10.40
2018-11-04T23:50:21.425Z,10.50
2018-11-04T23:52:51.689Z,10.60
2018-11-04T23:55:21.950Z,10.70
2018-11-04T23:58:02.905Z,10.70
